Time;durP1;ratioP1;P1;durP2;ratioP2;P2;SDS_P1;SDS_P2;PMS_P1;PMS_P2;Temp;Humidity;BMP_temperature;BMP_pressure;BME280_temperature;BME280_humidity;BME280_pressure;Samples;Min_cycle;Max_cycle;Signal;HPM_P1;HPM_P2
2022/06/11 00:01:52;;;;;;;11.27;5.32;;;17.00;99.90;;;;;;5019610;28;20038;-59
2022/06/11 00:04:29;;;;;;;11.77;6.43;;;17.00;99.90;;;;;;5004574;28;20076;-58
2022/06/11 00:07:02;;;;;;;19.15;6.05;;;16.90;99.90;;;;;;5016069;28;20054;-58
2022/06/11 00:09:28;;;;;;;10.57;5.43;;;16.80;99.90;;;;;;5020514;28;20038;-59
2022/06/11 00:11:54;;;;;;;11.52;5.60;;;16.80;99.90;;;;;;5020822;28;20054;-58
2022/06/11 00:14:23;;;;;;;11.27;5.53;;;16.70;99.90;;;;;;5019587;28;20045;-58
2022/06/11 00:16:50;;;;;;;11.63;4.88;;;16.70;99.90;;;;;;5020783;28;20054;-58
2022/06/11 00:19:18;;;;;;;11.80;5.85;;;16.60;99.90;;;;;;5019594;28;20057;-59
2022/06/11 00:21:45;;;;;;;10.88;5.07;;;16.50;99.90;;;;;;5020608;28;20096;-59
2022/06/11 00:24:11;;;;;;;10.32;4.60;;;16.50;99.90;;;;;;5020112;28;20061;-58
2022/06/11 00:26:39;;;;;;;11.15;5.10;;;16.50;99.90;;;;;;5020089;28;20054;-59
2022/06/11 00:29:05;;;;;;;9.75;4.30;;;16.40;99.90;;;;;;5020646;28;20061;-59
2022/06/11 00:31:32;;;;;;;9.23;3.92;;;16.40;99.90;;;;;;5019316;28;20072;-59
2022/06/11 00:33:57;;;;;;;13.18;4.07;;;16.30;99.90;;;;;;5020152;28;20050;-59
2022/06/11 00:36:24;;;;;;;8.07;3.53;;;16.30;99.90;;;;;;5019374;28;20117;-58
2022/06/11 00:38:50;;;;;;;10.80;4.05;;;16.20;99.90;;;;;;5020772;28;20811;-59
2022/06/11 00:41:19;;;;;;;11.05;3.45;;;16.20;99.90;;;;;;5019727;28;20046;-58
2022/06/11 00:43:45;;;;;;;13.40;3.83;;;16.10;99.90;;;;;;5019864;28;20038;-58
2022/06/11 00:46:35;;;;;;;9.60;2.90;;;16.10;99.90;;;;;;5020594;28;20038;-59
2022/06/11 00:49:03;;;;;;;8.05;3.03;;;16.10;99.90;;;;;;5019227;28;20065;-59
2022/06/11 00:51:31;;;;;;;9.93;3.20;;;16.10;99.90;;;;;;5020733;28;20042;-59
2022/06/11 00:54:00;;;;;;;8.85;3.40;;;16.10;99.90;;;;;;5019529;28;20410;-57
2022/06/11 00:56:31;;;;;;;9.40;3.30;;;16.10;99.90;;;;;;5020223;28;20053;-59
2022/06/11 00:59:00;;;;;;;11.40;3.13;;;16.10;99.90;;;;;;5002614;28;20045;-59
2022/06/11 01:01:27;;;;;;;9.43;3.17;;;16.00;99.90;;;;;;5019265;28;20080;-59
2022/06/11 01:03:56;;;;;;;13.07;3.97;;;15.90;99.90;;;;;;5020506;28;20611;-58
2022/06/11 01:06:27;;;;;;;11.55;3.55;;;16.00;99.90;;;;;;5019038;28;20046;-59
2022/06/11 01:08:53;;;;;;;11.45;3.45;;;15.90;99.90;;;;;;5020344;28;20053;-59
2022/06/11 01:11:34;;;;;;;9.00;3.63;;;16.00;99.90;;;;;;5019515;28;20061;-58
2022/06/11 01:14:18;;;;;;;12.10;3.63;;;15.90;99.90;;;;;;5019129;28;20050;-56
2022/06/11 01:16:56;;;;;;;11.35;3.25;;;15.80;99.90;;;;;;5020241;28;20085;-59
2022/06/11 01:19:36;;;;;;;11.10;4.32;;;15.70;99.90;;;;;;5017875;28;20045;-58
2022/06/11 01:22:42;;;;;;;11.80;2.90;;;15.70;99.90;;;;;;5019116;28;20079;-59
2022/06/11 01:25:33;;;;;;;11.40;2.90;;;15.70;99.90;;;;;;5019338;28;20102;-59
2022/06/11 01:28:24;;;;;;;11.03;2.87;;;15.60;99.90;;;;;;5017498;28;20409;-59
2022/06/11 01:30:55;;;;;;;11.55;2.97;;;15.60;99.90;;;;;;5018961;28;20038;-59
2022/06/11 01:33:39;;;;;;;10.83;3.03;;;15.50;99.90;;;;;;5018925;28;20046;-58
2022/06/11 01:36:12;;;;;;;11.88;3.15;;;15.50;99.90;;;;;;5017581;28;20077;-58
2022/06/11 01:38:42;;;;;;;14.18;3.38;;;15.60;99.90;;;;;;5019351;28;20048;-59
2022/06/11 01:41:21;;;;;;;11.65;2.30;;;15.50;99.90;;;;;;5017858;28;20049;-58
2022/06/11 01:43:49;;;;;;;11.20;2.70;;;15.50;99.90;;;;;;5018219;28;20053;-59
2022/06/11 01:46:26;;;;;;;11.95;2.65;;;15.30;99.90;;;;;;5021366;28;20050;-59
2022/06/11 01:49:00;;;;;;;10.00;2.35;;;15.40;99.90;;;;;;5021173;28;20076;-59
2022/06/11 01:51:40;;;;;;;13.95;2.97;;;15.30;99.90;;;;;;5022732;28;20490;-59
2022/06/11 01:54:20;;;;;;;9.65;2.72;;;15.40;99.90;;;;;;5021112;28;20042;-59
2022/06/11 01:57:08;;;;;;;8.82;2.40;;;15.30;99.90;;;;;;5004416;28;20117;-59
2022/06/11 02:00:05;;;;;;;9.80;2.47;;;15.30;99.90;;;;;;5022499;28;20180;-59
2022/06/11 02:02:54;;;;;;;10.88;2.70;;;15.20;99.90;;;;;;5020688;28;20053;-58
2022/06/11 02:06:01;;;;;;;10.30;2.58;;;15.30;99.90;;;;;;5003895;28;20046;-59
2022/06/11 02:08:37;;;;;;;12.82;3.05;;;15.10;99.90;;;;;;5022272;28;20049;-59
2022/06/11 02:11:14;;;;;;;10.27;2.60;;;15.10;99.90;;;;;;5020815;28;20446;-59
2022/06/11 02:13:59;;;;;;;12.38;3.05;;;15.00;99.90;;;;;;5021638;28;20104;-59
2022/06/11 02:16:33;;;;;;;9.15;2.40;;;15.00;99.90;;;;;;5021983;28;20080;-59
2022/06/11 02:19:05;;;;;;;10.38;2.78;;;15.00;99.90;;;;;;5020235;28;20449;-59
2022/06/11 02:21:36;;;;;;;10.23;3.40;;;15.00;99.90;;;;;;5022277;28;20112;-59
2022/06/11 02:24:12;;;;;;;13.02;2.85;;;15.00;99.90;;;;;;5020783;28;20046;-59
2022/06/11 02:26:41;;;;;;;16.83;2.90;;;15.00;99.90;;;;;;5021273;28;20041;-60
2022/06/11 02:29:09;;;;;;;12.32;2.83;;;15.00;99.90;;;;;;5021731;28;20060;-59
2022/06/11 02:31:43;;;;;;;8.90;3.47;;;14.90;99.90;;;;;;5020239;28;20053;-60
2022/06/11 02:34:10;;;;;;;15.23;3.40;;;14.90;99.90;;;;;;5022022;28;20126;-59
2022/06/11 02:36:54;;;;;;;11.30;3.03;;;14.90;99.90;;;;;;5020066;28;20042;-60
2022/06/11 02:39:20;;;;;;;10.27;2.53;;;14.90;99.90;;;;;;5021231;28;20053;-59
2022/06/11 02:41:47;;;;;;;13.75;3.78;;;14.90;99.90;;;;;;5020872;28;20045;-59
2022/06/11 02:44:13;;;;;;;16.17;3.35;;;14.80;99.90;;;;;;5002576;28;20038;-59
2022/06/11 02:46:41;;;;;;;13.07;3.03;;;14.80;99.90;;;;;;5003970;28;20042;-59
2022/06/11 02:49:08;;;;;;;11.13;2.97;;;14.80;99.90;;;;;;5019828;28;20038;-60
2022/06/11 02:51:34;;;;;;;14.73;3.00;;;14.80;99.90;;;;;;5021377;28;20109;-59
2022/06/11 02:54:00;;;;;;;12.93;2.70;;;14.80;99.90;;;;;;5019971;28;20066;-59
2022/06/11 02:56:26;;;;;;;15.95;3.40;;;14.80;99.90;;;;;;5020421;28;20034;-60
2022/06/11 02:58:52;;;;;;;15.05;4.10;;;14.80;99.90;;;;;;5020604;28;20046;-59
2022/06/11 03:01:19;;;;;;;10.50;2.88;;;14.80;99.90;;;;;;5002555;28;20053;-59
2022/06/11 03:03:45;;;;;;;12.93;2.95;;;14.80;99.90;;;;;;5021261;28;20050;-59
2022/06/11 03:06:11;;;;;;;14.38;3.15;;;14.70;99.90;;;;;;5019407;28;20093;-58
2022/06/11 03:08:37;;;;;;;16.02;3.20;;;14.70;99.90;;;;;;5021313;28;20049;-59
2022/06/11 03:11:03;;;;;;;10.68;3.10;;;14.70;99.90;;;;;;5019821;28;20053;-59
2022/06/11 03:13:30;;;;;;;13.70;3.90;;;14.70;99.90;;;;;;5020607;28;20038;-59
2022/06/11 03:15:57;;;;;;;14.43;3.20;;;14.60;99.90;;;;;;5020061;28;20088;-58
2022/06/11 03:18:23;;;;;;;14.70;3.22;;;14.50;99.90;;;;;;5020016;28;20050;-59
2022/06/11 03:20:50;;;;;;;12.40;3.08;;;14.60;99.90;;;;;;5020814;28;20536;-59
2022/06/11 03:23:17;;;;;;;13.23;3.15;;;14.60;99.90;;;;;;5019128;28;20050;-60
2022/06/11 03:25:43;;;;;;;12.15;3.00;;;14.50;99.90;;;;;;5020856;28;20054;-59
2022/06/11 03:28:12;;;;;;;13.50;3.08;;;14.50;99.90;;;;;;5019341;28;20864;-57
2022/06/11 03:30:38;;;;;;;13.07;2.70;;;14.40;99.90;;;;;;5020601;28;20096;-59
2022/06/11 03:33:05;;;;;;;13.82;3.58;;;14.40;99.90;;;;;;5002262;28;20107;-59
2022/06/11 03:35:31;;;;;;;12.70;2.85;;;14.40;99.90;;;;;;5019464;28;20113;-60
2022/06/11 03:37:57;;;;;;;10.60;2.83;;;14.40;99.90;;;;;;5020730;28;20050;-59
2022/06/11 03:40:23;;;;;;;10.90;3.05;;;14.40;99.90;;;;;;5018770;28;20042;-60
2022/06/11 03:42:49;;;;;;;13.55;3.58;;;14.40;99.90;;;;;;5020916;28;20433;-60
2022/06/11 03:45:15;;;;;;;11.98;3.72;;;14.40;99.90;;;;;;5018540;28;20107;-59
2022/06/11 03:47:41;;;;;;;13.38;3.83;;;14.50;99.90;;;;;;5020414;28;20034;-59
2022/06/11 03:50:11;;;;;;;17.35;3.65;;;14.50;99.90;;;;;;5019362;28;20521;-60
2022/06/11 03:52:37;;;;;;;11.23;2.88;;;14.50;99.90;;;;;;5019043;28;20042;-59
2022/06/11 03:55:03;;;;;;;9.43;3.15;;;14.40;99.90;;;;;;5020222;28;20050;-59
2022/06/11 03:57:28;;;;;;;10.70;3.65;;;14.40;99.90;;;;;;5018568;28;20046;-59
2022/06/11 03:59:55;;;;;;;13.90;3.47;;;14.40;99.90;;;;;;5002878;28;20041;-59
2022/06/11 04:02:20;;;;;;;14.57;4.07;;;14.40;99.90;;;;;;5018531;28;20050;-59
2022/06/11 04:04:46;;;;;;;16.75;3.63;;;14.40;99.90;;;;;;5002128;28;20133;-60
2022/06/11 04:07:13;;;;;;;16.67;3.85;;;14.40;99.90;;;;;;5019162;28;20114;-56
2022/06/11 04:09:42;;;;;;;13.77;4.05;;;14.50;99.90;;;;;;5018971;28;20137;-60
2022/06/11 04:12:11;;;;;;;9.23;3.22;;;14.50;99.90;;;;;;5020129;28;20046;-59
2022/06/11 04:14:38;;;;;;;14.95;4.07;;;14.50;99.90;;;;;;5018003;28;20045;-59
2022/06/11 04:17:07;;;;;;;12.40;4.30;;;14.40;99.90;;;;;;5002200;28;20492;-60
2022/06/11 04:19:38;;;;;;;15.30;3.63;;;14.50;99.90;;;;;;5018521;28;20053;-59
2022/06/11 04:22:05;;;;;;;13.50;3.83;;;14.50;99.90;;;;;;5019445;28;20502;-59
2022/06/11 04:24:31;;;;;;;13.30;3.97;;;14.60;99.90;;;;;;5019329;28;20132;-59
2022/06/11 04:26:59;;;;;;;11.52;3.45;;;14.50;99.90;;;;;;5018829;28;20049;-59
2022/06/11 04:29:30;;;;;;;14.77;3.55;;;14.60;99.90;;;;;;5020011;28;20427;-59
2022/06/11 04:31:59;;;;;;;15.60;4.30;;;14.60;99.90;;;;;;5018123;28;20381;-59
2022/06/11 04:34:25;;;;;;;13.13;3.80;;;14.70;99.90;;;;;;5019972;28;20038;-59
2022/06/11 04:36:52;;;;;;;16.48;4.03;;;14.70;99.90;;;;;;5018131;28;20049;-59
2022/06/11 04:39:21;;;;;;;15.45;3.75;;;14.70;99.90;;;;;;5019446;28;20423;-59
2022/06/11 04:41:47;;;;;;;14.48;3.55;;;14.90;99.90;;;;;;5019263;28;20061;-59
2022/06/11 04:44:13;;;;;;;17.05;4.10;;;14.90;99.90;;;;;;5018131;28;20030;-60
2022/06/11 04:46:39;;;;;;;13.35;3.78;;;14.90;99.90;;;;;;5019819;28;20077;-59
2022/06/11 04:49:04;;;;;;;15.55;4.38;;;14.90;99.90;;;;;;5017909;28;20100;-59
2022/06/11 04:51:30;;;;;;;17.02;4.00;;;15.00;99.90;;;;;;5019667;28;20101;-59
2022/06/11 04:53:56;;;;;;;15.45;4.25;;;15.10;99.90;;;;;;5018220;28;20044;-59
2022/06/11 04:56:25;;;;;;;20.30;4.15;;;15.10;99.90;;;;;;5019133;28;20049;-59
2022/06/11 04:58:51;;;;;;;14.50;3.95;;;15.20;99.90;;;;;;5018969;28;20042;-58
2022/06/11 05:01:18;;;;;;;16.50;3.90;;;15.30;99.90;;;;;;5018224;28;20117;-59
2022/06/11 05:03:44;;;;;;;14.80;4.07;;;15.40;99.90;;;;;;5019802;28;20042;-58
2022/06/11 05:06:11;;;;;;;15.75;4.35;;;15.40;99.90;;;;;;5017572;28;20038;-59
2022/06/11 05:08:37;;;;;;;16.20;4.03;;;15.50;99.90;;;;;;5019759;28;20041;-59
2022/06/11 05:11:05;;;;;;;18.23;4.68;;;15.50;99.90;;;;;;5017773;28;20081;-58
2022/06/11 05:13:31;;;;;;;18.95;4.72;;;15.50;99.90;;;;;;5001204;28;20052;-60
2022/06/11 05:15:58;;;;;;;17.00;4.43;;;15.70;99.90;;;;;;5018588;28;20046;-59
2022/06/11 05:18:25;;;;;;;17.55;4.90;;;15.80;99.90;;;;;;5018012;28;20340;-59
2022/06/11 05:20:51;;;;;;;16.55;4.22;;;15.80;99.90;;;;;;5021398;28;20042;-59
2022/06/11 05:23:17;;;;;;;18.35;4.68;;;15.70;99.90;;;;;;4987450;28;20068;-59
2022/06/11 05:25:44;;;;;;;20.10;4.80;;;15.70;99.90;;;;;;5023085;28;20049;-59
2022/06/11 05:28:15;;;;;;;23.67;4.72;;;15.70;99.90;;;;;;5021648;28;20096;-58
2022/06/11 05:30:44;;;;;;;17.58;5.43;;;15.80;99.90;;;;;;5022638;28;20572;-59
2022/06/11 05:33:10;;;;;;;16.50;4.38;;;15.80;99.90;;;;;;5022591;28;20053;-59
2022/06/11 05:35:36;;;;;;;20.05;4.57;;;15.80;99.90;;;;;;5021554;28;20049;-59
2022/06/11 05:38:06;;;;;;;19.08;5.72;;;15.90;99.90;;;;;;5023142;28;20050;-55
2022/06/11 05:40:38;;;;;;;22.40;5.18;;;15.90;99.90;;;;;;5020954;28;20042;-59
2022/06/11 05:43:05;;;;;;;21.20;5.45;;;16.10;99.90;;;;;;5022849;28;20034;-59
2022/06/11 05:45:53;;;;;;;20.48;5.30;;;16.10;99.90;;;;;;5021491;28;20088;-58
2022/06/11 05:48:23;;;;;;;19.75;5.43;;;16.10;99.90;;;;;;5021612;28;20069;-59
2022/06/11 05:50:52;;;;;;;20.67;5.18;;;16.20;99.90;;;;;;5022600;28;20486;-59
2022/06/11 05:53:20;;;;;;;21.67;6.00;;;16.20;99.90;;;;;;5020752;28;20061;-59
2022/06/11 05:55:48;;;;;;;24.40;5.63;;;16.30;99.90;;;;;;5022846;28;20065;-59
2022/06/11 05:58:19;;;;;;;23.58;5.88;;;16.20;99.90;;;;;;5003308;28;20068;-58
2022/06/11 06:00:46;;;;;;;23.38;5.38;;;16.10;99.90;;;;;;5021947;28;20081;-58
2022/06/11 06:03:12;;;;;;;23.83;5.95;;;16.30;99.90;;;;;;5021900;28;20623;-58
2022/06/11 06:05:39;;;;;;;21.80;5.13;;;16.20;99.90;;;;;;5020931;28;20081;-58
2022/06/11 06:08:07;;;;;;;25.33;7.43;;;16.30;99.90;;;;;;5004583;28;20061;-59
2022/06/11 06:10:33;;;;;;;21.73;5.57;;;16.50;99.90;;;;;;5020361;28;20064;-59
2022/06/11 06:12:59;;;;;;;33.38;6.72;;;16.60;99.90;;;;;;5022294;28;20061;-59
2022/06/11 06:15:29;;;;;;;22.48;5.32;;;16.60;99.90;;;;;;5020682;28;20476;-60
2022/06/11 06:17:56;;;;;;;20.45;5.10;;;16.70;99.90;;;;;;5003418;28;20069;-59
2022/06/11 06:20:23;;;;;;;26.67;6.45;;;16.90;99.90;;;;;;5021531;28;20449;-59
2022/06/11 06:22:50;;;;;;;27.48;6.95;;;16.70;99.90;;;;;;5020317;28;20042;-59
2022/06/11 06:25:19;;;;;;;23.70;6.07;;;16.60;99.90;;;;;;5022186;28;20153;-59
2022/06/11 06:27:44;;;;;;;24.33;7.10;;;16.70;99.90;;;;;;5019987;28;20042;-59
2022/06/11 06:30:10;;;;;;;24.10;6.18;;;16.70;99.90;;;;;;5022023;28;20042;-60
2022/06/11 06:32:36;;;;;;;24.42;5.97;;;16.80;99.90;;;;;;5019140;28;20056;-60
2022/06/11 06:35:02;;;;;;;25.80;6.18;;;16.50;99.90;;;;;;5021347;28;20081;-60
2022/06/11 06:37:28;;;;;;;22.42;5.70;;;17.10;99.90;;;;;;5021216;28;20057;-59
2022/06/11 06:39:54;;;;;;;26.60;5.72;;;16.90;99.90;;;;;;5020245;28;20046;-60
2022/06/11 06:42:19;;;;;;;22.77;5.63;;;17.00;99.90;;;;;;5021913;28;20030;-59
2022/06/11 06:44:45;;;;;;;22.77;5.40;;;17.10;99.90;;;;;;5019506;28;20599;-59
2022/06/11 06:47:11;;;;;;;24.13;5.65;;;17.20;99.90;;;;;;5021529;28;20064;-59
2022/06/11 06:49:37;;;;;;;28.73;6.38;;;17.30;99.90;;;;;;5019966;28;20113;-59
2022/06/11 06:52:03;;;;;;;21.20;6.55;;;17.20;99.90;;;;;;5020912;28;20042;-59
2022/06/11 06:54:29;;;;;;;23.25;5.82;;;17.20;99.90;;;;;;5020742;28;20058;-60
2022/06/11 06:56:54;;;;;;;26.27;5.47;;;17.20;99.90;;;;;;5002081;28;20042;-60
2022/06/11 06:59:20;;;;;;;24.38;5.47;;;17.20;99.90;;;;;;5021015;28;20042;-59
2022/06/11 07:01:47;;;;;;;24.05;5.75;;;17.10;99.90;;;;;;5019255;28;20073;-59
2022/06/11 07:04:13;;;;;;;22.05;5.18;;;17.20;99.90;;;;;;5021231;28;20125;-59
2022/06/11 07:06:40;;;;;;;27.92;6.38;;;17.40;99.90;;;;;;5001390;28;20589;-60
2022/06/11 07:09:07;;;;;;;24.67;6.18;;;17.10;99.90;;;;;;5020447;28;20052;-60
2022/06/11 07:11:33;;;;;;;19.55;5.00;;;17.40;99.90;;;;;;5020241;28;20042;-59
2022/06/11 07:13:59;;;;;;;24.50;5.75;;;17.50;99.90;;;;;;5019378;28;20489;-60
2022/06/11 07:16:32;;;;;;;18.05;4.82;;;17.70;99.90;;;;;;5020763;28;20044;-59
2022/06/11 07:19:01;;;;;;;25.50;6.10;;;17.80;99.90;;;;;;5019034;28;20081;-58
2022/06/11 07:21:36;;;;;;;24.52;5.55;;;17.80;99.90;;;;;;5020905;28;20042;-60
2022/06/11 07:24:09;;;;;;;28.20;6.50;;;17.90;99.90;;;;;;5019592;28;20042;-59
2022/06/11 07:26:41;;;;;;;23.88;5.63;;;17.90;99.90;;;;;;5020263;28;20038;-59
2022/06/11 07:29:09;;;;;;;22.05;5.00;;;17.90;99.90;;;;;;5020716;28;20038;-59
2022/06/11 07:31:36;;;;;;;27.40;6.07;;;18.00;99.90;;;;;;5019061;28;20060;-59
2022/06/11 07:34:02;;;;;;;27.55;5.25;;;17.90;99.90;;;;;;5021022;28;20052;-59
2022/06/11 07:36:28;;;;;;;18.02;4.35;;;17.80;99.90;;;;;;5018715;28;20482;-58
2022/06/11 07:38:54;;;;;;;24.55;5.15;;;18.00;99.90;;;;;;5020330;28;20118;-59
2022/06/11 07:41:20;;;;;;;22.55;5.28;;;18.10;99.90;;;;;;5019355;28;20042;-59
2022/06/11 07:43:46;;;;;;;23.42;5.05;;;18.20;99.90;;;;;;5019059;28;20046;-60
2022/06/11 07:46:11;;;;;;;20.35;4.95;;;18.10;99.90;;;;;;5020335;28;20042;-59
2022/06/11 07:48:37;;;;;;;21.65;4.50;;;18.30;99.90;;;;;;5018422;28;20053;-60
2022/06/11 07:51:04;;;;;;;20.92;5.45;;;18.20;99.90;;;;;;5020583;28;20042;-60
2022/06/11 07:53:29;;;;;;;21.73;5.30;;;18.20;99.90;;;;;;5018297;28;20046;-60
2022/06/11 07:55:55;;;;;;;22.83;4.25;;;18.20;99.90;;;;;;5020195;28;20037;-60
2022/06/11 07:58:26;;;;;;;22.05;5.25;;;18.20;99.90;;;;;;5019167;28;20049;-59
2022/06/11 08:00:53;;;;;;;25.73;6.00;;;18.10;99.90;;;;;;5019529;28;20092;-60
2022/06/11 08:03:20;;;;;;;21.38;5.00;;;18.00;99.90;;;;;;5002350;28;20045;-59
2022/06/11 08:05:46;;;;;;;20.85;5.43;;;18.30;99.90;;;;;;5018486;28;20037;-59
2022/06/11 08:08:13;;;;;;;23.70;4.30;;;18.50;99.90;;;;;;5020132;28;20049;-59
2022/06/11 08:10:41;;;;;;;22.10;4.57;;;18.60;99.90;;;;;;5018108;28;20510;-60
2022/06/11 08:13:08;;;;;;;19.42;4.30;;;18.70;99.90;;;;;;5019673;28;20123;-59
2022/06/11 08:15:33;;;;;;;18.25;4.18;;;18.60;99.90;;;;;;5018111;28;20518;-59
2022/06/11 08:18:00;;;;;;;20.55;4.32;;;18.70;99.90;;;;;;5018743;28;20076;-59
2022/06/11 08:20:28;;;;;;;21.20;5.30;;;18.50;99.90;;;;;;5019794;28;20128;-59
2022/06/11 08:22:54;;;;;;;20.02;4.03;;;18.50;99.90;;;;;;5018014;28;20073;-60
2022/06/11 08:25:20;;;;;;;19.35;4.40;;;18.60;99.90;;;;;;5019960;28;20045;-59
2022/06/11 08:27:46;;;;;;;16.23;3.50;;;18.70;99.90;;;;;;5018174;28;20042;-59
2022/06/11 08:30:15;;;;;;;15.70;3.70;;;18.60;99.90;;;;;;5019608;28;20136;-59
2022/06/11 08:32:40;;;;;;;19.58;4.00;;;18.70;99.90;;;;;;5018669;28;20078;-58
2022/06/11 08:35:07;;;;;;;17.20;4.30;;;18.60;99.90;;;;;;5019026;28;20057;-59
2022/06/11 08:37:33;;;;;;;19.52;4.70;;;18.60;99.90;;;;;;5019330;28;20046;-59
2022/06/11 08:39:58;;;;;;;19.42;3.95;;;18.60;99.90;;;;;;5017977;28;20078;-59
2022/06/11 08:42:37;;;;;;;25.38;5.00;;;18.90;99.90;;;;;;5020065;28;20048;-59
2022/06/11 08:45:05;;;;;;;21.88;4.35;;;19.00;99.90;;;;;;5017679;28;20050;-59
2022/06/11 08:47:39;;;;;;;20.90;4.53;;;19.00;99.90;;;;;;5019513;28;20053;-59
2022/06/11 08:50:10;;;;;;;20.70;4.50;;;19.00;99.90;;;;;;5018794;28;20049;-59
2022/06/11 08:52:36;;;;;;;19.65;4.20;;;19.10;99.90;;;;;;5018542;28;20042;-60
2022/06/11 08:55:02;;;;;;;20.20;4.57;;;19.20;99.90;;;;;;5020514;28;20477;-59
2022/06/11 08:57:49;;;;;;;16.13;4.03;;;19.00;99.90;;;;;;5021810;28;20046;-59
2022/06/11 09:00:19;;;;;;;17.27;3.88;;;19.00;99.90;;;;;;5023441;28;20041;-59
2022/06/11 09:02:45;;;;;;;16.77;3.83;;;19.10;99.90;;;;;;5022548;28;20098;-58
2022/06/11 09:05:19;;;;;;;15.75;4.25;;;19.20;99.90;;;;;;5022603;28;20088;-59
2022/06/11 09:07:53;;;;;;;22.42;4.18;;;19.00;99.90;;;;;;5023363;28;20049;-55
2022/06/11 09:10:26;;;;;;;17.88;3.80;;;19.00;99.90;;;;;;5021531;28;20057;-59
2022/06/11 09:13:17;;;;;;;17.15;3.35;;;19.30;99.90;;;;;;5023364;28;20046;-59
2022/06/11 09:16:09;;;;;;;16.90;4.13;;;19.30;99.90;;;;;;5022197;28;20049;-59
2022/06/11 09:18:40;;;;;;;18.25;4.22;;;19.30;99.90;;;;;;5021245;28;20050;-59
2022/06/11 09:21:38;;;;;;;14.55;3.78;;;19.00;99.90;;;;;;5005599;28;20046;-60
2022/06/11 09:24:48;;;;;;;16.20;3.20;;;19.00;99.90;;;;;;5002322;28;20057;-60
2022/06/11 09:27:23;;;;;;;18.45;3.95;;;19.10;99.90;;;;;;4971090;28;20062;-59
2022/06/11 09:30:12;;;;;;;13.65;3.08;;;19.10;99.90;;;;;;5003573;28;20133;-60
2022/06/11 09:32:47;;;;;;;16.40;4.10;;;19.10;99.90;;;;;;4991340;28;20082;-59
2022/06/11 09:35:28;;;;;;;12.27;2.92;;;19.20;99.90;;;;;;5002343;28;20054;-60
2022/06/11 09:38:21;;;;;;;15.10;3.53;;;19.40;99.90;;;;;;5003354;28;20057;-60
2022/06/11 09:40:54;;;;;;;11.60;2.78;;;19.40;99.90;;;;;;5001499;28;20114;-59
2022/06/11 09:43:31;;;;;;;12.82;2.67;;;19.60;99.90;;;;;;5002524;28;20050;-59
2022/06/11 09:46:27;;;;;;;11.77;2.95;;;19.60;99.90;;;;;;5002520;28;20054;-59
2022/06/11 09:49:22;;;;;;;11.38;2.78;;;19.50;99.90;;;;;;5001277;28;20042;-59
2022/06/11 09:51:57;;;;;;;17.55;3.88;;;19.70;99.90;;;;;;5002568;28;20046;-59
2022/06/11 09:54:38;;;;;;;15.02;3.75;;;19.80;99.90;;;;;;4984936;28;20061;-59
2022/06/11 09:57:41;;;;;;;11.63;2.75;;;19.80;99.90;;;;;;5001215;28;20043;-60
2022/06/11 10:00:30;;;;;;;15.27;3.10;;;19.80;99.90;;;;;;5002671;28;20053;-59
2022/06/11 10:03:35;;;;;;;15.00;3.65;;;19.70;99.90;;;;;;5001960;28;20065;-55
2022/06/11 10:06:09;;;;;;;14.25;3.10;;;19.80;99.90;;;;;;4970011;28;20132;-61
2022/06/11 10:08:56;;;;;;;17.02;2.85;;;19.90;99.90;;;;;;5002818;28;20057;-61
2022/06/11 10:11:30;;;;;;;13.43;3.42;;;20.00;99.90;;;;;;5001626;28;20333;-60
2022/06/11 10:16:54;;;;;;;10.75;2.92;;;20.30;99.90;;;;;;5002266;28;20479;-60
2022/06/11 10:19:56;;;;;;;16.35;3.53;;;19.80;99.90;;;;;;5000738;28;20057;-60
2022/06/11 10:22:30;;;;;;;16.77;3.10;;;20.00;99.90;;;;;;5009302;28;20050;-61
2022/06/11 10:25:30;;;;;;;15.15;2.92;;;19.80;99.90;;;;;;5021630;28;20364;-61
2022/06/11 10:28:14;;;;;;;16.08;4.10;;;19.80;99.90;;;;;;5019945;28;20062;-60
2022/06/11 10:30:45;;;;;;;12.82;2.72;;;20.20;99.90;;;;;;5021116;28;20112;-57
2022/06/11 10:33:55;;;;;;;12.98;3.08;;;20.40;99.90;;;;;;5021639;28;20129;-60
2022/06/11 10:36:38;;;;;;;13.93;3.42;;;20.50;99.90;;;;;;5019719;28;20109;-59
2022/06/11 10:39:04;;;;;;;18.08;3.22;;;20.40;99.90;;;;;;5021100;28;20033;-60
2022/06/11 10:41:56;;;;;;;22.08;3.63;;;20.80;99.90;;;;;;5020595;28;20470;-59
2022/06/11 10:44:42;;;;;;;11.45;2.75;;;20.50;99.90;;;;;;4981591;28;20140;-60
2022/06/11 10:47:16;;;;;;;12.55;2.50;;;20.40;99.90;;;;;;5021170;28;20129;-60
2022/06/11 10:49:44;;;;;;;19.10;3.60;;;20.30;99.90;;;;;;5020222;28;20064;-60
2022/06/11 10:52:36;;;;;;;13.60;3.30;;;20.30;99.90;;;;;;5020576;28;20052;-60
2022/06/11 10:55:03;;;;;;;;;;;20.40;99.90;;;;;;5022038;28;20045;-60
2022/06/11 10:57:31;;;;;;;14.55;3.22;;;20.20;99.90;;;;;;5019253;28;20004;-60
2022/06/11 11:00:18;;;;;;;13.45;3.25;;;19.90;99.90;;;;;;5021327;28;20053;-60
2022/06/11 11:02:52;;;;;;;13.73;2.92;;;20.00;99.90;;;;;;5020126;28;20050;-60
2022/06/11 11:05:19;;;;;;;15.02;3.30;;;20.40;99.90;;;;;;5019703;28;20077;-60
2022/06/11 11:08:01;;;;;;;12.65;2.92;;;20.30;99.90;;;;;;5020999;28;20073;-60
2022/06/11 11:10:42;;;;;;;15.68;3.00;;;20.70;99.90;;;;;;5018512;28;20860;-59
2022/06/11 11:13:18;;;;;;;12.10;3.13;;;20.70;99.90;;;;;;5020917;28;20168;-60
2022/06/11 11:15:55;;;;;;;19.55;3.03;;;20.60;99.90;;;;;;5020022;28;20050;-59
2022/06/11 11:18:24;;;;;;;15.15;2.83;;;20.60;99.90;;;;;;5018825;28;20062;-60
2022/06/11 11:20:53;;;;;;;15.25;3.10;;;20.90;99.90;;;;;;5020897;28;20049;-60
2022/06/11 11:23:29;;;;;;;12.75;3.13;;;21.00;99.90;;;;;;5018953;28;20049;-60
2022/06/11 11:26:19;;;;;;;11.30;2.47;;;21.10;99.90;;;;;;5020498;28;20124;-60
2022/06/11 11:29:01;;;;;;;18.88;3.63;;;21.10;99.90;;;;;;5019675;28;20566;-60
2022/06/11 11:31:38;;;;;;;13.30;2.78;;;21.30;99.90;;;;;;5018400;28;20105;-59
2022/06/11 11:34:09;;;;;;;14.32;2.72;;;21.30;99.90;;;;;;5020494;28;20045;-59
2022/06/11 11:36:35;;;;;;;9.40;2.70;;;21.10;99.90;;;;;;5018783;28;20072;-59
2022/06/11 11:39:13;;;;;;;13.32;3.35;;;21.40;99.90;;;;;;5019996;28;20038;-59
2022/06/11 11:42:08;;;;;;;11.63;2.72;;;21.30;99.90;;;;;;5019615;28;20370;-59
2022/06/11 11:44:46;;;;;;;14.98;3.13;;;21.10;99.90;;;;;;5018101;28;20084;-59
2022/06/11 11:47:36;;;;;;;14.10;2.70;;;21.00;99.90;;;;;;5019994;28;20060;-59
2022/06/11 11:50:13;;;;;;;10.45;2.30;;;21.10;99.90;;;;;;5018747;28;20528;-59
2022/06/11 11:52:51;;;;;;;12.85;3.05;;;21.30;99.90;;;;;;5018553;28;20080;-58
2022/06/11 11:55:26;;;;;;;11.80;2.50;;;21.10;99.90;;;;;;5020000;28;20101;-60
2022/06/11 11:58:06;;;;;;;12.90;2.47;;;21.40;99.90;;;;;;5018439;28;20069;-59
2022/06/11 12:00:40;;;;;;;10.60;2.70;;;21.10;99.90;;;;;;5019594;28;20080;-59
2022/06/11 12:03:34;;;;;;;13.45;3.33;;;20.50;99.90;;;;;;5019425;28;20038;-59
2022/06/11 12:05:59;;;;;;;10.45;2.03;;;20.50;99.90;;;;;;5017724;28;20049;-59
2022/06/11 12:08:50;;;;;;;9.73;1.95;;;20.20;99.90;;;;;;5019796;28;20096;-58
2022/06/11 12:11:37;;;;;;;12.05;2.40;;;20.30;99.90;;;;;;5012834;28;20081;-59
2022/06/11 12:14:14;;;;;;;12.95;2.60;;;20.50;99.90;;;;;;5017946;28;20046;-59
2022/06/11 12:16:53;;;;;;;9.90;1.75;;;20.60;99.90;;;;;;5019724;28;20046;-59
2022/06/11 12:19:24;;;;;;;10.10;1.83;;;20.60;99.90;;;;;;5017985;28;20049;-60
2022/06/11 12:21:55;;;;;;;;;;;20.40;99.90;;;;;;5019743;28;20049;-60
2022/06/11 12:24:26;;;;;;;11.68;2.20;;;20.50;99.90;;;;;;5018836;28;20349;-60
2022/06/11 12:26:55;;;;;;;;;;;20.70;99.90;;;;;;5018604;28;20049;-61
2022/06/11 12:29:49;;;;;;;10.98;1.98;;;20.90;99.90;;;;;;5020122;28;19945;-60
2022/06/11 12:32:26;;;;;;;11.68;1.92;;;20.90;99.90;;;;;;5018254;28;20041;-59
2022/06/11 12:34:52;;;;;;;13.95;2.72;;;21.00;99.90;;;;;;5019295;28;20058;-60
2022/06/11 12:37:43;;;;;;;9.43;2.10;;;20.60;99.90;;;;;;5001452;28;20053;-60
2022/06/11 12:40:27;;;;;;;10.93;2.30;;;20.70;99.90;;;;;;5000229;28;20084;-60
2022/06/11 12:42:55;;;;;;;10.32;2.58;;;20.60;99.90;;;;;;5019754;28;20108;-60
2022/06/11 12:45:30;;;;;;;11.80;2.40;;;20.70;99.90;;;;;;5017958;28;20362;-60
2022/06/11 12:48:29;;;;;;;10.05;2.08;;;21.00;99.90;;;;;;5018745;28;20046;-60
2022/06/11 12:51:23;;;;;;;11.60;2.60;;;20.60;99.90;;;;;;5002240;28;20080;-61
2022/06/11 12:54:25;;;;;;;9.60;2.15;;;21.20;99.90;;;;;;5018131;28;20073;-60
2022/06/11 12:57:20;;;;;;;11.32;3.10;;;21.30;99.90;;;;;;5001959;28;20050;-60
2022/06/11 12:59:45;;;;;;;10.35;2.80;;;21.20;99.90;;;;;;5001963;28;20070;-59
2022/06/11 13:02:23;;;;;;;11.07;2.53;;;20.60;99.90;;;;;;5017921;28;20042;-58
2022/06/11 13:05:29;;;;;;;15.68;2.85;;;20.90;99.90;;;;;;5019079;28;20100;-59
2022/06/11 13:08:43;;;;;;;12.30;2.50;;;20.50;99.90;;;;;;5019811;28;20050;-59
2022/06/11 13:11:12;;;;;;;15.35;2.42;;;20.60;99.90;;;;;;5009562;28;20056;-59